Time;durP1;ratioP1;P1;durP2;ratioP2;P2;SDS_P1;SDS_P2;PMS_P1;PMS_P2;Temp;Humidity;BMP_temperature;BMP_pressure;BME280_temperature;BME280_humidity;BME280_pressure;Samples;Min_cycle;Max_cycle;Signal;HPM_P1;HPM_P2
2022/08/29 00:01:07;;;;;;;12.48;6.55;;;20.10;95.20;;;;;;5060275;28;20056;-66
2022/08/29 00:03:34;;;;;;;10.32;6.70;;;20.10;95.20;;;;;;5043941;28;20013;-66
2022/08/29 00:06:00;;;;;;;12.50;6.95;;;20.10;95.20;;;;;;5056895;28;20036;-67
2022/08/29 00:08:26;;;;;;;11.60;6.40;;;20.10;95.20;;;;;;5063031;28;20029;-66
2022/08/29 00:10:51;;;;;;;11.13;6.50;;;20.10;95.20;;;;;;5072681;28;20032;-67
2022/08/29 00:13:17;;;;;;;9.88;5.95;;;20.10;95.20;;;;;;5056524;28;20296;-67
2022/08/29 00:15:43;;;;;;;11.05;6.38;;;20.10;95.20;;;;;;5072438;28;20435;-67
2022/08/29 00:18:09;;;;;;;9.65;6.03;;;20.00;95.20;;;;;;5059914;28;20027;-67
2022/08/29 00:20:35;;;;;;;8.95;6.00;;;20.00;95.20;;;;;;5051299;28;20025;-68
2022/08/29 00:23:03;;;;;;;10.32;6.07;;;20.00;95.20;;;;;;5056713;28;20032;-66
2022/08/29 00:25:29;;;;;;;14.07;6.05;;;20.00;95.20;;;;;;5061718;28;20020;-66
2022/08/29 00:27:54;;;;;;;8.02;6.03;;;20.00;95.20;;;;;;5059437;28;20032;-66
2022/08/29 00:30:21;;;;;;;12.07;6.65;;;20.00;95.20;;;;;;5047015;28;20017;-67
2022/08/29 00:32:47;;;;;;;13.45;6.50;;;20.00;95.20;;;;;;5038900;28;20133;-67
2022/08/29 00:35:22;;;;;;;10.93;5.97;;;20.00;95.20;;;;;;5066002;28;20535;-67
2022/08/29 00:37:48;;;;;;;9.93;6.32;;;20.00;95.20;;;;;;5068489;28;20060;-66
2022/08/29 00:40:17;;;;;;;8.10;6.07;;;20.00;95.20;;;;;;5055105;28;20052;-66
2022/08/29 00:42:43;;;;;;;10.37;6.40;;;20.00;95.20;;;;;;5063712;28;20090;-67
2022/08/29 00:45:12;;;;;;;10.38;5.70;;;20.00;95.20;;;;;;5065459;28;20259;-66
2022/08/29 00:47:45;;;;;;;8.93;5.72;;;20.00;95.20;;;;;;5053150;28;20389;-67
2022/08/29 00:50:23;;;;;;;13.40;5.93;;;20.00;95.20;;;;;;5064066;28;20053;-66
2022/08/29 00:52:49;;;;;;;8.88;5.57;;;20.00;95.20;;;;;;5067871;28;20363;-67
2022/08/29 00:55:21;;;;;;;17.60;6.20;;;20.00;95.20;;;;;;5072205;28;20039;-67
2022/08/29 00:57:51;;;;;;;9.88;5.97;;;20.00;95.20;;;;;;5047655;28;20021;-67
2022/08/29 01:00:17;;;;;;;;;;;20.00;95.20;;;;;;5064531;28;20112;-67
2022/08/29 01:02:43;;;;;;;11.27;5.68;;;20.00;95.20;;;;;;5073738;28;19983;-67
2022/08/29 01:08:31;;;;;;;11.77;6.10;;;20.00;95.20;;;;;;5095001;22;20075;-67
2022/08/29 01:13:45;;;;;;;11.63;6.82;;;19.90;95.20;;;;;;5060622;28;20068;-67
2022/08/29 01:16:13;;;;;;;13.93;6.68;;;19.90;95.10;;;;;;5061776;28;20029;-67
2022/08/29 01:18:42;;;;;;;14.00;6.90;;;19.90;95.20;;;;;;5063812;28;20482;-67
2022/08/29 01:21:33;;;;;;;10.77;7.05;;;19.90;95.20;;;;;;5058785;28;20067;-67
2022/08/29 01:24:50;;;;;;;9.32;6.70;;;19.90;95.10;;;;;;5057388;28;20028;-67
2022/08/29 01:27:21;;;;;;;9.95;6.55;;;19.90;95.10;;;;;;4998154;28;20068;-66
2022/08/29 01:29:47;;;;;;;9.93;6.55;;;19.90;95.10;;;;;;4997825;28;20062;-68
2022/08/29 01:32:14;;;;;;;11.48;7.30;;;19.90;95.10;;;;;;4999730;28;20331;-67
2022/08/29 01:34:40;;;;;;;11.85;7.93;;;19.90;95.10;;;;;;4995599;28;20030;-67
2022/08/29 01:37:09;;;;;;;10.77;7.47;;;19.90;95.10;;;;;;4996496;28;20061;-67
2022/08/29 01:39:38;;;;;;;14.02;8.10;;;19.90;95.10;;;;;;5001066;28;20026;-67
2022/08/29 01:42:16;;;;;;;13.18;8.00;;;19.90;95.10;;;;;;4994273;28;20542;-67
2022/08/29 01:44:49;;;;;;;10.18;7.28;;;19.90;95.10;;;;;;5000816;28;20037;-67
2022/08/29 01:47:15;;;;;;;13.27;7.05;;;19.90;95.10;;;;;;4998260;28;20026;-66
2022/08/29 01:49:41;;;;;;;11.63;7.00;;;19.90;95.10;;;;;;4997521;28;20034;-67
2022/08/29 01:52:07;;;;;;;12.90;6.72;;;19.90;95.10;;;;;;4996895;28;20042;-67
2022/08/29 01:54:33;;;;;;;13.15;6.18;;;19.90;95.10;;;;;;5000703;28;20514;-66
2022/08/29 01:57:00;;;;;;;9.00;6.13;;;19.90;95.10;;;;;;4999725;28;20038;-67
2022/08/29 01:59:27;;;;;;;15.77;7.03;;;19.90;95.10;;;;;;4997441;28;20574;-67
2022/08/29 02:01:58;;;;;;;14.20;7.90;;;19.80;95.10;;;;;;5001169;28;20052;-66
2022/08/29 02:04:24;;;;;;;14.40;7.72;;;19.80;95.10;;;;;;5062059;28;20090;-66
2022/08/29 02:06:50;;;;;;;12.48;7.28;;;19.80;95.10;;;;;;5053704;28;20033;-66
2022/08/29 02:09:16;;;;;;;10.98;6.70;;;19.80;95.10;;;;;;5059382;28;20068;-67
2022/08/29 02:11:42;;;;;;;14.02;6.90;;;19.90;95.10;;;;;;5061939;28;20052;-66
2022/08/29 02:14:07;;;;;;;12.05;6.68;;;19.80;95.10;;;;;;5060867;28;20512;-67
2022/08/29 02:16:33;;;;;;;11.98;6.35;;;19.90;95.10;;;;;;5058482;28;20024;-66
2022/08/29 02:18:58;;;;;;;13.65;7.28;;;19.90;95.10;;;;;;5059044;28;20021;-66
2022/08/29 02:21:26;;;;;;;20.45;7.35;;;19.80;95.10;;;;;;5061851;28;20119;-66
2022/08/29 02:23:53;;;;;;;11.50;6.57;;;19.80;95.10;;;;;;5048246;28;20025;-66
2022/08/29 02:26:20;;;;;;;10.20;6.75;;;19.90;95.10;;;;;;5061510;28;20045;-66
2022/08/29 02:28:48;;;;;;;11.57;7.18;;;19.90;95.10;;;;;;5061973;28;20024;-67
2022/08/29 02:31:15;;;;;;;12.30;6.55;;;19.80;95.10;;;;;;5061232;28;20086;-66
2022/08/29 02:33:41;;;;;;;15.57;7.53;;;19.80;95.10;;;;;;5058880;28;20025;-66
2022/08/29 02:36:07;;;;;;;10.35;6.93;;;19.80;95.00;;;;;;5056615;28;20505;-67
2022/08/29 02:38:33;;;;;;;10.73;7.07;;;19.80;95.10;;;;;;5048441;28;20112;-66
2022/08/29 02:41:00;;;;;;;9.65;6.50;;;19.80;95.10;;;;;;5058421;28;20028;-66
2022/08/29 02:43:26;;;;;;;11.95;6.60;;;19.80;95.00;;;;;;5061542;28;20029;-67
2022/08/29 02:45:52;;;;;;;12.57;6.90;;;19.80;95.10;;;;;;5061330;28;20024;-66
2022/08/29 02:48:18;;;;;;;11.50;6.85;;;19.80;95.00;;;;;;5060576;28;20055;-67
2022/08/29 02:50:50;;;;;;;10.00;6.45;;;19.80;95.00;;;;;;5058372;28;20506;-67
2022/08/29 02:53:19;;;;;;;11.55;7.07;;;19.80;95.00;;;;;;5062113;28;20127;-67
2022/08/29 02:55:50;;;;;;;13.13;7.57;;;19.80;95.00;;;;;;5056561;28;20023;-66
2022/08/29 02:58:16;;;;;;;13.02;7.00;;;19.80;95.00;;;;;;5058969;28;20025;-66
2022/08/29 03:00:41;;;;;;;17.52;7.53;;;19.80;95.00;;;;;;5060650;28;20016;-66
2022/08/29 03:03:08;;;;;;;13.95;7.35;;;19.80;95.00;;;;;;5061689;28;20029;-67
2022/08/29 03:05:35;;;;;;;16.50;7.38;;;19.80;95.00;;;;;;5052494;28;20009;-66
2022/08/29 03:08:04;;;;;;;19.13;7.50;;;19.70;95.00;;;;;;5066374;28;20039;-66
2022/08/29 03:10:30;;;;;;;11.43;7.10;;;19.80;95.00;;;;;;5079422;28;20044;-66
2022/08/29 03:12:55;;;;;;;17.50;7.20;;;19.80;95.00;;;;;;5078011;28;20453;-67
2022/08/29 03:15:21;;;;;;;14.48;7.15;;;19.70;95.00;;;;;;5078795;28;20111;-66
2022/08/29 03:17:47;;;;;;;11.43;7.90;;;19.70;95.00;;;;;;5081311;28;20039;-67
2022/08/29 03:20:16;;;;;;;13.35;7.60;;;19.70;95.00;;;;;;5081210;28;20051;-66
2022/08/29 03:22:43;;;;;;;18.63;7.47;;;19.70;95.00;;;;;;5078672;28;20492;-66
2022/08/29 03:25:09;;;;;;;12.27;6.75;;;19.70;95.00;;;;;;5081867;28;20035;-66
2022/08/29 03:27:35;;;;;;;18.55;7.05;;;19.70;95.00;;;;;;5081236;28;20016;-68
2022/08/29 03:30:00;;;;;;;12.63;7.32;;;19.70;95.00;;;;;;5063570;28;20050;-67
2022/08/29 03:32:27;;;;;;;13.57;7.22;;;19.70;95.00;;;;;;5080176;28;20369;-67
2022/08/29 03:34:53;;;;;;;14.05;7.75;;;19.70;94.90;;;;;;5077532;28;20409;-67
2022/08/29 03:37:19;;;;;;;11.93;7.07;;;19.70;95.30;;;;;;5075677;28;20077;-66
2022/08/29 03:39:45;;;;;;;13.77;6.72;;;19.70;94.90;;;;;;5063153;28;20470;-66
2022/08/29 03:42:11;;;;;;;24.13;8.15;;;19.70;94.90;;;;;;5081516;28;20043;-67
2022/08/29 03:44:38;;;;;;;9.82;6.78;;;19.70;94.90;;;;;;5078034;28;20029;-67
2022/08/29 03:47:05;;;;;;;10.30;6.45;;;19.70;94.90;;;;;;5071185;28;20029;-66
2022/08/29 03:49:55;;;;;;;11.18;6.43;;;19.70;94.90;;;;;;5073059;28;20021;-67
2022/08/29 03:52:21;;;;;;;10.25;6.35;;;19.70;94.90;;;;;;5052884;28;20024;-68
2022/08/29 03:54:53;;;;;;;11.32;6.70;;;19.70;94.90;;;;;;5034660;28;20683;-67
2022/08/29 03:57:40;;;;;;;15.55;7.75;;;19.60;94.90;;;;;;5052741;28;20021;-67
2022/08/29 04:00:19;;;;;;;11.55;6.05;;;19.70;94.90;;;;;;5052661;28;20021;-67
2022/08/29 04:02:46;;;;;;;11.90;6.88;;;19.70;94.90;;;;;;5071252;28;20020;-67
2022/08/29 04:05:14;;;;;;;13.75;6.30;;;19.60;94.90;;;;;;5077671;28;20032;-66
2022/08/29 04:07:53;;;;;;;10.63;7.03;;;19.70;94.90;;;;;;5077032;28;20032;-67
2022/08/29 04:10:32;;;;;;;12.82;7.40;;;19.60;94.90;;;;;;5078287;28;20024;-67
2022/08/29 04:12:58;;;;;;;11.38;7.30;;;19.60;94.90;;;;;;5072003;28;20031;-66
2022/08/29 04:15:26;;;;;;;13.77;7.55;;;19.60;94.90;;;;;;5077868;28;20029;-66
2022/08/29 04:17:54;;;;;;;9.50;6.90;;;19.60;94.90;;;;;;5082355;28;20107;-67
2022/08/29 04:20:25;;;;;;;13.40;7.45;;;19.60;94.90;;;;;;5081008;28;20028;-68
2022/08/29 04:22:50;;;;;;;11.02;6.90;;;19.60;94.90;;;;;;5066575;28;20020;-67
2022/08/29 04:25:17;;;;;;;16.92;6.80;;;19.60;94.90;;;;;;5073121;28;20029;-67
2022/08/29 04:27:43;;;;;;;13.18;7.18;;;19.60;94.90;;;;;;5080300;28;20028;-66
2022/08/29 04:30:15;;;;;;;13.25;7.18;;;19.60;94.80;;;;;;5083421;28;20028;-66
2022/08/29 04:32:41;;;;;;;10.98;6.38;;;19.60;94.80;;;;;;5063763;28;20110;-68
2022/08/29 04:35:07;;;;;;;12.10;6.55;;;19.60;94.80;;;;;;5080584;28;20120;-66
2022/08/29 04:37:33;;;;;;;10.93;6.22;;;19.60;94.80;;;;;;5082598;28;20025;-66
2022/08/29 04:40:00;;;;;;;11.00;7.20;;;19.60;94.80;;;;;;5062195;28;20021;-67
2022/08/29 04:42:26;;;;;;;10.40;6.68;;;19.60;94.80;;;;;;5080893;28;20397;-66
2022/08/29 04:44:54;;;;;;;17.58;6.75;;;19.50;94.80;;;;;;5084130;28;20013;-67
2022/08/29 04:47:21;;;;;;;12.63;6.88;;;19.60;94.80;;;;;;5084101;28;20028;-66
2022/08/29 04:49:48;;;;;;;12.75;6.82;;;19.60;94.80;;;;;;5080942;28;20020;-66
2022/08/29 04:52:14;;;;;;;11.95;7.22;;;19.60;94.80;;;;;;5080956;28;20078;-66
2022/08/29 04:54:40;;;;;;;13.57;7.35;;;19.60;94.80;;;;;;5082397;28;20028;-67
2022/08/29 04:57:06;;;;;;;17.15;8.35;;;19.60;94.80;;;;;;5080520;28;20485;-67
2022/08/29 04:59:32;;;;;;;15.48;7.78;;;19.60;94.80;;;;;;5081864;28;20024;-67
2022/08/29 05:01:57;;;;;;;11.35;7.32;;;19.60;94.80;;;;;;5079410;28;20036;-67
2022/08/29 05:04:24;;;;;;;16.75;7.28;;;19.60;94.80;;;;;;5080707;28;20127;-67
2022/08/29 05:06:49;;;;;;;16.10;8.05;;;19.60;94.80;;;;;;5083316;28;20397;-67
2022/08/29 05:09:15;;;;;;;15.15;8.32;;;19.60;94.80;;;;;;5078667;28;20034;-67
2022/08/29 05:11:41;;;;;;;13.57;7.75;;;19.60;94.80;;;;;;5063356;28;20024;-66
2022/08/29 05:14:07;;;;;;;12.27;7.53;;;19.50;94.70;;;;;;5062372;28;20504;-67
2022/08/29 05:16:36;;;;;;;18.20;7.38;;;19.60;94.80;;;;;;5079267;28;20024;-66
2022/08/29 05:19:03;;;;;;;12.32;8.27;;;19.50;94.70;;;;;;5083977;28;20145;-66
2022/08/29 05:21:32;;;;;;;12.23;6.90;;;19.60;94.70;;;;;;5083459;28;20032;-67
2022/08/29 05:23:59;;;;;;;11.68;7.03;;;19.60;94.70;;;;;;5051221;28;20042;-66
2022/08/29 05:26:30;;;;;;;10.48;6.30;;;19.60;94.70;;;;;;5082705;28;20020;-64
2022/08/29 05:28:55;;;;;;;10.02;6.45;;;19.60;94.70;;;;;;5072015;28;20419;-66
2022/08/29 05:31:21;;;;;;;13.88;6.20;;;19.60;94.90;;;;;;5061959;28;20677;-65
2022/08/29 05:33:47;;;;;;;18.02;6.57;;;19.50;94.50;;;;;;5081880;28;20028;-65
2022/08/29 05:36:13;;;;;;;9.88;6.72;;;19.50;94.50;;;;;;5082594;28;20469;-65
2022/08/29 05:38:38;;;;;;;12.98;6.57;;;19.50;94.50;;;;;;5058758;28;20029;-66
2022/08/29 05:41:06;;;;;;;13.75;6.63;;;19.50;94.40;;;;;;5083082;28;20354;-65
2022/08/29 05:43:32;;;;;;;11.90;6.07;;;19.60;94.40;;;;;;5083255;28;20012;-66
2022/08/29 05:46:06;;;;;;;9.27;6.60;;;19.60;94.40;;;;;;5082166;28;20028;-65
2022/08/29 05:48:33;;;;;;;10.70;6.65;;;19.60;94.70;;;;;;5083042;28;20031;-65
2022/08/29 05:50:59;;;;;;;10.57;6.97;;;19.60;94.40;;;;;;5053314;28;20115;-65
2022/08/29 05:53:26;;;;;;;19.23;7.72;;;19.60;94.30;;;;;;5060729;28;20021;-67
2022/08/29 05:55:52;;;;;;;13.93;6.18;;;19.60;94.20;;;;;;5080745;28;20244;-65
2022/08/29 05:58:18;;;;;;;15.15;6.93;;;19.70;94.20;;;;;;5082286;28;20378;-66
2022/08/29 06:00:45;;;;;;;13.82;6.10;;;19.70;94.20;;;;;;5081435;28;20028;-65
2022/08/29 06:03:12;;;;;;;10.45;7.05;;;19.70;94.10;;;;;;5079708;28;20029;-65
2022/08/29 06:05:39;;;;;;;10.02;6.70;;;19.70;94.10;;;;;;5078629;28;20033;-66
2022/08/29 06:08:05;;;;;;;12.70;7.40;;;19.80;94.10;;;;;;5087503;28;20029;-65
2022/08/29 06:10:31;;;;;;;9.60;7.18;;;19.80;94.10;;;;;;5068525;28;20027;-65
2022/08/29 06:12:57;;;;;;;14.85;7.55;;;19.80;94.00;;;;;;5082973;28;20048;-65
2022/08/29 06:15:24;;;;;;;9.00;6.45;;;19.90;94.00;;;;;;5063904;28;20487;-65
2022/08/29 06:17:56;;;;;;;15.32;7.38;;;19.90;94.00;;;;;;5073773;28;20032;-65
2022/08/29 06:20:21;;;;;;;13.15;8.18;;;19.90;94.00;;;;;;5082671;28;20032;-65
2022/08/29 06:22:47;;;;;;;15.07;8.40;;;20.00;93.90;;;;;;5081470;28;20032;-66
2022/08/29 06:25:12;;;;;;;21.23;8.65;;;20.00;93.90;;;;;;5065888;28;20028;-65
2022/08/29 06:27:38;;;;;;;13.55;8.68;;;20.10;93.90;;;;;;5064757;28;20149;-65
2022/08/29 06:30:05;;;;;;;12.07;7.78;;;20.10;93.80;;;;;;5064180;28;20020;-65
2022/08/29 06:32:31;;;;;;;13.52;7.75;;;20.20;93.80;;;;;;5074961;28;20029;-66
2022/08/29 06:34:56;;;;;;;15.57;8.40;;;20.20;93.80;;;;;;5086846;28;20028;-65
2022/08/29 06:37:22;;;;;;;12.55;8.25;;;20.30;93.80;;;;;;5079190;28;20417;-65
2022/08/29 06:39:47;;;;;;;13.85;8.13;;;20.30;93.80;;;;;;5071695;28;20040;-66
2022/08/29 06:42:13;;;;;;;13.02;9.27;;;20.30;93.80;;;;;;5082539;28;20046;-66
2022/08/29 06:44:39;;;;;;;14.15;9.45;;;20.40;94.10;;;;;;5081910;28;20032;-66
2022/08/29 06:47:04;;;;;;;15.10;9.70;;;20.50;93.70;;;;;;5077846;28;20017;-66
2022/08/29 06:49:32;;;;;;;12.68;8.25;;;20.50;93.70;;;;;;5079038;28;21180;-65
2022/08/29 06:51:58;;;;;;;16.17;8.95;;;20.60;93.70;;;;;;5080492;28;20024;-65
2022/08/29 06:54:25;;;;;;;17.25;9.35;;;20.60;93.60;;;;;;5076379;28;20028;-65
2022/08/29 06:56:51;;;;;;;17.90;7.85;;;20.70;93.60;;;;;;5079195;28;20021;-65
2022/08/29 06:59:17;;;;;;;17.23;7.85;;;20.70;93.50;;;;;;5064380;28;20038;-65
2022/08/29 07:01:44;;;;;;;11.75;8.10;;;20.70;93.40;;;;;;5063408;28;20028;-66
2022/08/29 07:04:10;;;;;;;14.13;8.85;;;20.80;93.30;;;;;;5079091;28;20016;-66
2022/08/29 07:06:37;;;;;;;14.23;8.75;;;20.90;93.30;;;;;;5078302;28;20091;-66
2022/08/29 07:09:03;;;;;;;18.55;9.07;;;20.90;93.20;;;;;;5079398;28;20041;-67
2022/08/29 07:11:30;;;;;;;16.58;8.50;;;21.00;93.10;;;;;;5062873;28;20012;-66
2022/08/29 07:13:58;;;;;;;14.55;8.50;;;21.00;93.00;;;;;;5080310;28;20081;-65
2022/08/29 07:16:24;;;;;;;14.10;9.57;;;21.10;93.00;;;;;;5076102;28;20029;-65
2022/08/29 07:18:50;;;;;;;14.10;8.60;;;21.10;92.90;;;;;;5078418;28;20057;-65
2022/08/29 07:21:17;;;;;;;16.70;8.73;;;21.20;92.90;;;;;;5078608;28;20024;-65
2022/08/29 07:23:43;;;;;;;19.35;8.70;;;21.20;92.80;;;;;;5078065;28;20062;-66
2022/08/29 07:26:24;;;;;;;15.43;8.50;;;21.20;92.70;;;;;;5073905;28;20024;-65
2022/08/29 07:28:53;;;;;;;16.75;7.95;;;21.30;93.10;;;;;;5078549;28;20486;-66
2022/08/29 07:31:19;;;;;;;28.13;9.18;;;21.30;92.70;;;;;;5063507;28;20026;-65
2022/08/29 07:33:45;;;;;;;14.18;7.55;;;21.40;92.60;;;;;;5081595;28;20106;-66
2022/08/29 07:36:11;;;;;;;20.50;9.48;;;21.40;92.50;;;;;;5077525;28;20099;-65
2022/08/29 07:38:38;;;;;;;14.20;7.82;;;21.50;92.40;;;;;;5077915;28;20115;-68
2022/08/29 07:41:06;;;;;;;12.48;9.15;;;21.50;92.40;;;;;;5079975;28;20047;-65
2022/08/29 07:43:32;;;;;;;20.40;8.85;;;21.60;92.30;;;;;;5060091;28;20427;-65
2022/08/29 07:45:58;;;;;;;16.45;8.38;;;21.60;92.20;;;;;;5078510;28;20024;-65
2022/08/29 07:48:25;;;;;;;13.98;7.22;;;21.70;92.10;;;;;;5081225;28;20266;-65
2022/08/29 07:50:51;;;;;;;11.93;6.97;;;21.70;92.10;;;;;;5081255;28;20020;-66
2022/08/29 07:53:17;;;;;;;10.35;6.43;;;21.70;92.00;;;;;;5077621;28;20373;-66
2022/08/29 07:55:43;;;;;;;14.48;7.15;;;21.80;92.00;;;;;;5079027;28;20026;-66
2022/08/29 07:58:09;;;;;;;15.95;8.23;;;21.80;91.90;;;;;;5078901;28;20032;-65
2022/08/29 08:00:34;;;;;;;9.00;6.32;;;21.90;91.90;;;;;;5077654;28;20305;-65
2022/08/29 08:03:00;;;;;;;13.68;7.65;;;21.90;91.80;;;;;;5061738;28;20406;-65
2022/08/29 08:05:26;;;;;;;20.55;9.23;;;21.90;91.80;;;;;;5084627;28;20016;-65
2022/08/29 08:07:52;;;;;;;14.73;8.15;;;22.00;91.70;;;;;;5066423;28;20093;-66
2022/08/29 08:10:19;;;;;;;11.73;7.68;;;22.00;91.60;;;;;;5062872;28;20038;-65
2022/08/29 08:12:46;;;;;;;15.75;8.40;;;22.00;91.60;;;;;;5085228;28;20024;-66
2022/08/29 08:15:13;;;;;;;16.52;7.30;;;22.10;91.50;;;;;;5081654;28;20055;-65
2022/08/29 08:17:39;;;;;;;12.10;6.90;;;22.10;91.50;;;;;;5081101;28;20016;-66
2022/08/29 08:20:08;;;;;;;11.73;6.65;;;22.10;91.40;;;;;;5064678;28;20453;-65
2022/08/29 08:22:35;;;;;;;12.95;7.55;;;22.10;91.40;;;;;;5085218;28;20052;-65
2022/08/29 08:25:01;;;;;;;14.15;6.35;;;22.20;91.40;;;;;;5078846;28;20103;-66
2022/08/29 08:27:26;;;;;;;13.27;6.93;;;22.20;91.30;;;;;;5084659;28;20043;-65
2022/08/29 08:29:52;;;;;;;16.17;7.10;;;22.30;91.30;;;;;;5084868;28;20150;-65
2022/08/29 08:32:18;;;;;;;11.70;6.78;;;22.30;91.30;;;;;;5081626;28;20055;-65
2022/08/29 08:34:43;;;;;;;11.93;6.95;;;22.30;91.20;;;;;;5080870;28;20085;-65
2022/08/29 08:37:09;;;;;;;16.67;6.78;;;22.40;91.10;;;;;;5082535;28;20012;-65
2022/08/29 08:39:36;;;;;;;10.20;6.78;;;22.30;91.00;;;;;;5084697;28;20027;-65
2022/08/29 08:42:22;;;;;;;10.73;6.28;;;22.40;91.10;;;;;;5081270;28;20425;-66
2022/08/29 08:45:11;;;;;;;17.02;6.35;;;22.40;91.00;;;;;;5084286;28;20390;-65
2022/08/29 08:48:02;;;;;;;22.52;7.55;;;22.40;90.90;;;;;;5074737;28;20020;-67
2022/08/29 08:50:49;;;;;;;10.98;6.60;;;22.40;90.90;;;;;;5055660;28;20632;-65
2022/08/29 08:53:32;;;;;;;11.93;6.35;;;22.50;90.80;;;;;;5083354;28;20450;-65
2022/08/29 08:56:00;;;;;;;11.55;7.43;;;22.50;90.70;;;;;;5073887;28;20119;-65
2022/08/29 08:58:54;;;;;;;14.70;8.32;;;22.60;90.70;;;;;;5055057;28;20020;-66
2022/08/29 09:01:29;;;;;;;13.80;7.22;;;22.50;90.50;;;;;;5082990;28;20432;-65
2022/08/29 09:04:25;;;;;;;11.60;6.65;;;22.60;90.60;;;;;;5065661;28;20046;-65
2022/08/29 09:07:26;;;;;;;16.52;6.85;;;22.60;90.50;;;;;;5075593;28;20500;-66
2022/08/29 09:10:07;;;;;;;17.98;7.25;;;22.60;90.40;;;;;;5052973;28;20047;-66
2022/08/29 09:12:40;;;;;;;8.52;5.68;;;22.60;90.50;;;;;;5074042;28;20016;-66
2022/08/29 09:15:15;;;;;;;15.48;7.57;;;22.70;90.50;;;;;;5079989;28;20100;-65
2022/08/29 09:17:48;;;;;;;11.73;7.13;;;22.70;90.40;;;;;;5083331;28;20026;-66
2022/08/29 09:20:27;;;;;;;12.95;6.45;;;22.70;90.40;;;;;;5081812;28;20020;-66
2022/08/29 09:23:05;;;;;;;11.65;6.13;;;22.70;90.50;;;;;;5062591;28;20024;-66
2022/08/29 09:25:34;;;;;;;17.23;7.43;;;22.70;90.50;;;;;;5071015;28;21076;-65
2022/08/29 09:28:03;;;;;;;10.73;6.80;;;22.70;90.40;;;;;;5080270;28;20024;-65
2022/08/29 09:30:32;;;;;;;13.52;7.10;;;22.70;90.40;;;;;;5072479;28;20609;-66
2022/08/29 09:33:15;;;;;;;12.63;6.90;;;22.70;90.40;;;;;;5080179;28;20024;-65
2022/08/29 09:35:50;;;;;;;14.05;6.07;;;22.70;90.50;;;;;;5073646;28;20608;-66
2022/08/29 09:38:16;;;;;;;9.60;6.28;;;22.70;90.50;;;;;;5082090;28;20100;-65
2022/08/29 09:40:54;;;;;;;9.70;5.97;;;22.70;90.50;;;;;;5074799;28;20119;-66
2022/08/29 09:43:37;;;;;;;11.18;6.07;;;22.70;90.50;;;;;;5078953;28;20480;-65
2022/08/29 09:46:24;;;;;;;8.48;5.68;;;22.70;90.60;;;;;;5079982;28;20028;-66
2022/08/29 09:49:12;;;;;;;11.93;5.72;;;22.70;90.60;;;;;;5075113;28;20025;-66
2022/08/29 09:51:41;;;;;;;13.35;6.18;;;22.60;90.60;;;;;;5058541;28;20047;-66
2022/08/29 09:54:21;;;;;;;10.00;5.25;;;22.60;90.60;;;;;;5083311;28;20031;-66
2022/08/29 09:56:50;;;;;;;9.60;5.63;;;22.60;90.60;;;;;;5077971;28;20016;-65
2022/08/29 09:59:38;;;;;;;9.73;6.07;;;22.60;90.70;;;;;;5081693;28;20027;-66
2022/08/29 10:02:25;;;;;;;15.02;6.30;;;22.50;90.70;;;;;;5079638;28;20032;-66
2022/08/29 10:04:55;;;;;;;9.27;5.75;;;22.50;90.70;;;;;;5080070;28;20024;-66
2022/08/29 10:07:25;;;;;;;11.27;5.65;;;22.50;90.70;;;;;;5080862;28;20218;-66
2022/08/29 10:09:59;;;;;;;7.43;5.38;;;22.50;90.80;;;;;;5071589;28;20029;-65
2022/08/29 10:12:50;;;;;;;10.20;5.45;;;22.40;90.80;;;;;;5076737;28;20423;-66
2022/08/29 10:15:43;;;;;;;11.07;5.88;;;22.40;90.90;;;;;;5079650;28;20033;-66
2022/08/29 10:18:30;;;;;;;12.23;4.47;;;22.40;90.90;;;;;;5053596;28;20038;-66
2022/08/29 10:20:55;;;;;;;8.50;4.78;;;22.40;90.90;;;;;;5074098;28;20057;-65
2022/08/29 10:23:30;;;;;;;5.53;4.13;;;22.30;91.00;;;;;;5080824;28;20478;-66
2022/08/29 10:26:03;;;;;;;9.52;5.47;;;22.30;91.10;;;;;;5075982;28;20035;-66
2022/08/29 10:28:49;;;;;;;10.98;5.50;;;22.30;91.10;;;;;;5079445;28;20056;-66
2022/08/29 10:31:42;;;;;;;11.88;5.20;;;22.30;91.10;;;;;;5081623;28;20032;-66
2022/08/29 10:34:41;;;;;;;13.25;5.47;;;22.20;91.10;;;;;;5079180;28;20020;-66
2022/08/29 10:37:23;;;;;;;7.03;5.15;;;22.20;91.20;;;;;;5074397;28;20104;-66
2022/08/29 10:40:19;;;;;;;10.00;5.47;;;22.20;91.20;;;;;;5072367;28;20115;-66
2022/08/29 10:42:47;;;;;;;6.38;4.03;;;22.20;91.30;;;;;;5073648;28;20063;-66
2022/08/29 10:45:34;;;;;;;7.40;4.50;;;22.10;91.20;;;;;;5077689;28;20033;-66
2022/08/29 10:48:20;;;;;;;8.30;4.68;;;22.10;91.20;;;;;;5064100;28;20046;-66
2022/08/29 10:51:05;;;;;;;10.15;5.40;;;22.10;91.30;;;;;;5071443;28;20028;-66
2022/08/29 10:53:41;;;;;;;5.75;4.47;;;22.10;91.30;;;;;;5078007;28;20373;-65
2022/08/29 10:56:23;;;;;;;11.48;5.00;;;22.10;91.30;;;;;;5075770;28;20126;-66
2022/08/29 10:58:49;;;;;;;9.13;5.43;;;22.00;91.30;;;;;;5053210;28;20021;-66
2022/08/29 11:01:34;;;;;;;9.20;5.15;;;22.00;91.40;;;;;;5078328;28;20043;-66
2022/08/29 11:04:29;;;;;;;9.30;5.40;;;22.00;91.40;;;;;;5072600;28;20039;-66
2022/08/29 11:07:10;;;;;;;9.18;4.95;;;22.00;91.50;;;;;;4976573;28;20030;-66
2022/08/29 11:09:55;;;;;;;7.65;4.85;;;22.00;91.50;;;;;;4979492;28;20035;-66
2022/08/29 11:12:35;;;;;;;8.10;4.85;;;21.90;91.50;;;;;;4977889;28;20042;-66
2022/08/29 11:15:03;;;;;;;;;;;21.90;91.50;;;;;;4976940;28;20042;-66
2022/08/29 11:17:34;;;;;;;5.82;4.32;;;21.90;91.50;;;;;;4977529;28;19906;-66
2022/08/29 11:20:12;;;;;;;7.97;4.22;;;21.90;91.50;;;;;;4979792;28;20105;-66
2022/08/29 11:22:47;;;;;;;6.70;4.10;;;21.90;91.50;;;;;;4977212;28;20038;-67
2022/08/29 11:25:17;;;;;;;6.57;4.78;;;21.90;91.50;;;;;;4976097;28;20035;-66
2022/08/29 11:28:03;;;;;;;6.97;4.68;;;21.90;91.50;;;;;;4982309;28;20041;-66
2022/08/29 11:30:47;;;;;;;7.47;4.22;;;21.90;91.50;;;;;;4976823;28;20373;-66
2022/08/29 11:33:30;;;;;;;6.60;4.05;;;21.80;91.50;;;;;;4979867;28;20071;-66
2022/08/29 11:36:26;;;;;;;10.07;4.65;;;21.80;91.50;;;;;;4975539;28;20029;-66
2022/08/29 11:39:20;;;;;;;6.78;4.50;;;21.80;91.50;;;;;;4975835;28;20026;-66
2022/08/29 11:41:53;;;;;;;7.20;4.43;;;21.80;91.50;;;;;;4964852;28;20051;-66
2022/08/29 11:44:31;;;;;;;9.93;5.38;;;21.80;91.50;;;;;;5063737;28;20082;-66
2022/08/29 11:46:57;;;;;;;7.05;4.35;;;21.80;91.50;;;;;;5071076;28;20021;-66
2022/08/29 11:49:37;;;;;;;7.63;4.35;;;21.80;91.50;;;;;;5078258;28;20093;-66
2022/08/29 11:52:11;;;;;;;6.75;4.40;;;21.80;91.50;;;;;;5082125;28;20020;-66
2022/08/29 11:54:38;;;;;;;7.10;3.47;;;21.80;91.50;;;;;;5081523;28;20438;-67
2022/08/29 11:57:04;;;;;;;6.00;4.10;;;21.80;91.50;;;;;;5056609;28;20433;-66
2022/08/29 11:59:48;;;;;;;5.95;4.07;;;21.80;91.50;;;;;;5078657;28;20020;-66
2022/08/29 12:02:29;;;;;;;10.10;4.15;;;21.80;91.50;;;;;;5081337;28;20036;-66
2022/08/29 12:04:56;;;;;;;7.25;3.83;;;21.80;91.50;;;;;;5069963;28;20355;-66
2022/08/29 12:07:34;;;;;;;4.97;3.65;;;21.80;91.50;;;;;;5077538;28;20048;-66
2022/08/29 12:10:03;;;;;;;4.65;3.88;;;21.80;91.50;;;;;;5070837;28;20366;-67
2022/08/29 12:12:50;;;;;;;4.73;3.67;;;21.80;91.40;;;;;;5059343;28;20043;-66
2022/08/29 12:15:31;;;;;;;10.98;4.00;;;21.80;91.80;;;;;;5082101;28;20098;-66
2022/08/29 12:18:21;;;;;;;8.82;3.80;;;21.80;91.40;;;;;;5069591;28;20104;-66
2022/08/29 12:20:54;;;;;;;10.52;3.88;;;21.80;91.40;;;;;;5079974;28;20032;-66
2022/08/29 12:23:30;;;;;;;5.18;3.58;;;21.80;91.40;;;;;;5081103;28;20119;-66
2022/08/29 12:26:04;;;;;;;5.05;3.38;;;21.80;91.40;;;;;;5069453;28;20024;-66
2022/08/29 12:28:32;;;;;;;7.82;3.78;;;21.80;91.40;;;;;;5072375;28;20114;-66
2022/08/29 12:30:58;;;;;;;5.22;3.65;;;21.80;91.80;;;;;;5077323;28;20032;-66
2022/08/29 12:33:58;;;;;;;7.88;3.78;;;21.80;91.40;;;;;;5077586;28;20116;-66
2022/08/29 12:36:48;;;;;;;7.95;3.88;;;21.70;91.40;;;;;;5073282;28;20088;-66
2022/08/29 12:39:32;;;;;;;4.18;3.45;;;21.80;91.40;;;;;;5054276;28;20044;-66
2022/08/29 12:42:10;;;;;;;9.63;3.67;;;21.70;91.40;;;;;;5068193;28;20573;-66
2022/08/29 12:44:42;;;;;;;4.93;3.42;;;21.70;91.40;;;;;;5078088;28;20025;-66
2022/08/29 12:47:19;;;;;;;8.73;3.42;;;21.70;91.30;;;;;;5079992;28;20122;-66
2022/08/29 12:49:50;;;;;;;6.20;3.55;;;21.70;91.30;;;;;;5081591;28;20024;-66
2022/08/29 12:52:24;;;;;;;3.60;2.95;;;21.70;91.30;;;;;;5079368;28;20033;-66
2022/08/29 12:54:50;;;;;;;5.90;3.40;;;21.70;91.30;;;;;;5075117;28;20017;-66
2022/08/29 12:58:08;;;;;;;8.52;3.72;;;21.70;91.30;;;;;;5081201;28;20028;-66
2022/08/29 13:04:18;;;;;;;6.53;3.38;;;21.70;91.30;;;;;;5068463;28;20086;-66
2022/08/29 13:06:59;;;;;;;8.57;3.88;;;21.70;91.30;;;;;;5075341;28;20089;-66
2022/08/29 13:09:30;;;;;;;4.78;3.10;;;21.70;91.30;;;;;;5084632;28;20038;-66
2022/08/29 13:12:20;;;;;;;14.55;4.00;;;21.70;91.70;;;;;;5089585;28;20052;-66